createdAt,value
2019-04-05T00:02:18.952Z,99420.39
2019-04-05T00:05:23.022Z,99422.66
2019-04-05T00:08:26.961Z,99438.37
2019-04-05T00:11:31.317Z,99436.38
2019-04-05T00:14:35.291Z,99429.36
2019-04-05T00:17:39.091Z,99431.67
2019-04-05T00:20:43.359Z,99432.38
2019-04-05T00:23:47.277Z,99438.10
2019-04-05T00:26:51.195Z,99439.33
2019-04-05T00:29:55.735Z,99446.81
2019-04-05T00:33:00.390Z,99444.16
2019-04-05T00:36:05.906Z,99451.30
2019-04-05T00:39:10.219Z,99454.66
2019-04-05T00:42:14.803Z,99451.36
2019-04-05T00:45:27.905Z,99456.52
2019-04-05T00:48:27.165Z,99461.05
2019-04-05T00:51:31.269Z,99457.87
2019-04-05T00:54:35.139Z,99455.52
2019-04-05T00:57:39.402Z,99451.59
2019-04-05T01:00:43.875Z,99442.31
2019-04-05T01:03:48.073Z,99438.84
2019-04-05T01:06:53.514Z,99429.91
2019-04-05T01:09:57.510Z,99431.75
2019-04-05T01:13:01.793Z,99430.25
2019-04-05T01:16:05.785Z,99433.28
2019-04-05T01:19:10.808Z,99437.57
2019-04-05T01:22:16.307Z,99449.30
2019-04-05T01:25:22.222Z,99446.20
2019-04-05T01:28:26.238Z,99441.42
2019-04-05T01:31:30.295Z,99437.23
2019-04-05T01:34:34.215Z,99432.34
2019-04-05T01:37:38.975Z,99434.73
2019-04-05T01:40:46.475Z,99429.42
2019-04-05T01:43:51.083Z,99421.20
2019-04-05T01:46:55.241Z,99421.91
2019-04-05T01:49:59.488Z,99419.03
2019-04-05T01:53:03.297Z,99416.08
2019-04-05T01:56:07.529Z,99410.85
2019-04-05T01:59:11.944Z,99417.31
2019-04-05T02:02:16.276Z,99424.59
2019-04-05T02:05:20.292Z,99426.62
2019-04-05T02:08:25.088Z,99429.65
2019-04-05T02:11:29.248Z,99428.38
2019-04-05T02:14:33.153Z,99436.06
2019-04-05T02:17:37.262Z,99435.84
2019-04-05T02:20:41.380Z,99439.58
2019-04-05T02:23:45.462Z,99444.72
2019-04-05T02:26:49.386Z,99448.16
2019-04-05T02:29:53.343Z,99453.45
2019-04-05T02:32:57.502Z,99456.62
2019-04-05T02:36:01.550Z,99459.13
2019-04-05T02:39:07.791Z,99464.12
2019-04-05T02:42:12.506Z,99466.56
2019-04-05T02:45:17.791Z,99473.51
2019-04-05T02:48:23.029Z,99482.14
2019-04-05T02:51:28.494Z,99484.20
2019-04-05T02:54:34.753Z,99481.77
2019-04-05T02:57:38.772Z,99478.88
2019-04-05T03:00:44.537Z,99479.39
2019-04-05T03:03:50.683Z,99481.66
2019-04-05T03:06:55.268Z,99488.23
2019-04-05T03:10:00.037Z,99492.29
2019-04-05T03:13:04.178Z,99495.00
2019-04-05T03:16:13.825Z,99493.59
2019-04-05T03:19:21.839Z,99498.28
2019-04-05T03:22:28.159Z,99495.56
2019-04-05T03:25:32.735Z,99498.66
2019-04-05T03:28:39.477Z,99494.67
2019-04-05T03:31:44.760Z,99481.77
2019-04-05T03:34:49.883Z,99477.36
2019-04-05T03:37:54.097Z,99472.89
2019-04-05T03:40:58.891Z,99460.09
2019-04-05T03:44:03.547Z,99451.43
2019-04-05T03:47:07.910Z,99452.97
2019-04-05T03:50:12.386Z,99450.77
2019-04-05T03:53:16.654Z,99444.77
2019-04-05T03:56:20.686Z,99444.88
2019-04-05T03:59:24.837Z,99444.36
2019-04-05T04:02:28.833Z,99440.52
2019-04-05T04:05:33.148Z,99440.41
2019-04-05T04:08:37.860Z,99436.92
2019-04-05T04:11:41.834Z,99440.33
2019-04-05T04:14:46.461Z,99439.51
2019-04-05T04:17:51.033Z,99441.38
2019-04-05T04:20:58.964Z,99453.28
2019-04-05T04:24:03.108Z,99458.62
2019-04-05T04:27:07.956Z,99461.13
2019-04-05T04:30:12.158Z,99464.42
2019-04-05T04:33:16.516Z,99465.77
2019-04-05T04:36:21.552Z,99470.17
2019-04-05T04:39:25.592Z,99478.23
2019-04-05T04:42:30.600Z,99471.59
2019-04-05T04:45:35.011Z,99469.42
2019-04-05T04:48:40.294Z,99468.08
2019-04-05T04:51:44.961Z,99471.34
2019-04-05T04:54:49.032Z,99478.02
2019-04-05T04:57:52.960Z,99479.02
2019-04-05T05:00:57.184Z,99468.59
2019-04-05T05:04:01.825Z,99483.18
2019-04-05T05:07:05.920Z,99476.44
2019-04-05T05:10:10.342Z,99481.19
2019-04-05T05:13:14.446Z,99485.73
2019-04-05T05:16:18.845Z,99488.20
2019-04-05T05:19:22.832Z,99492.92
2019-04-05T05:22:27.262Z,99502.72
2019-04-05T05:25:31.580Z,99500.11
2019-04-05T05:28:37.552Z,99504.48
2019-04-05T05:31:42.448Z,99501.45
2019-04-05T05:34:46.796Z,99514.36
2019-04-05T05:37:50.859Z,99505.75
2019-04-05T05:40:55.162Z,99497.73
2019-04-05T05:43:59.372Z,99495.95
2019-04-05T05:47:03.815Z,99501.62
2019-04-05T05:50:08.278Z,99499.05
2019-04-05T05:53:12.793Z,99500.83
2019-04-05T05:56:16.700Z,99494.74
2019-04-05T05:59:21.290Z,99493.57
2019-04-05T06:02:25.585Z,99500.97
2019-04-05T06:05:29.462Z,99502.06
2019-04-05T06:08:33.429Z,99500.86
2019-04-05T06:11:38.661Z,99504.52
2019-04-05T06:14:42.575Z,99503.14
2019-04-05T06:17:46.500Z,99505.72
2019-04-05T06:20:50.330Z,99502.55
2019-04-05T06:23:54.128Z,99499.55
2019-04-05T06:26:58.274Z,99497.66
2019-04-05T06:30:02.637Z,99487.30
2019-04-05T06:33:06.604Z,99487.40
2019-04-05T06:36:10.553Z,99484.41
2019-04-05T06:39:16.125Z,99480.83
2019-04-05T06:42:20.502Z,99477.77
2019-04-05T06:45:24.715Z,99486.67
2019-04-05T06:48:29.585Z,99491.30
2019-04-05T06:51:34.238Z,99489.40
2019-04-05T06:54:39.111Z,99486.32
2019-04-05T06:57:43.340Z,99477.65
2019-04-05T07:00:56.850Z,99474.99
2019-04-05T07:03:55.245Z,99471.67
2019-04-05T07:06:59.367Z,99467.35
2019-04-05T07:10:03.399Z,99467.48
2019-04-05T07:13:07.402Z,99462.04
2019-04-05T07:16:11.476Z,99459.58
2019-04-05T07:19:15.315Z,99454.98
2019-04-05T07:22:33.209Z,99455.88
2019-04-05T07:25:24.817Z,99454.69
2019-04-05T07:28:28.705Z,99459.81
2019-04-05T07:31:32.593Z,99454.95
2019-04-05T07:34:37.132Z,99474.08
2019-04-05T07:37:40.982Z,99473.34
2019-04-05T07:40:46.472Z,99473.64
2019-04-05T07:43:50.410Z,99478.52
2019-04-05T07:46:54.681Z,99477.95
2019-04-05T07:49:58.873Z,99473.65
2019-04-05T07:53:03.091Z,99472.13
2019-04-05T07:56:06.975Z,99475.25
2019-04-05T07:59:10.853Z,99478.00
2019-04-05T08:02:14.753Z,99479.27
2019-04-05T08:05:18.565Z,99484.88
2019-04-05T08:08:51.595Z,99482.58
2019-04-05T08:11:55.638Z,99486.71
2019-04-05T08:15:00.280Z,99488.27
2019-04-05T08:18:04.651Z,99486.91
2019-04-05T08:21:08.654Z,99488.59
2019-04-05T08:24:12.741Z,99480.66
2019-04-05T08:27:16.818Z,99479.42
2019-04-05T08:30:21.111Z,99488.34
2019-04-05T08:33:25.257Z,99490.92
2019-04-05T08:36:29.223Z,99494.11
2019-04-05T08:39:33.082Z,99496.64
2019-04-05T08:42:37.302Z,99493.97
2019-04-05T08:45:41.221Z,99501.17
2019-04-05T08:48:45.123Z,99495.17
2019-04-05T08:51:49.056Z,99496.39
2019-04-05T08:54:52.939Z,99491.84
2019-04-05T08:57:56.871Z,99492.58
2019-04-05T09:01:00.783Z,99497.02
2019-04-05T09:04:05.043Z,99495.70
2019-04-05T09:07:09.240Z,99498.86
2019-04-05T09:10:13.614Z,99494.57
2019-04-05T09:13:17.872Z,99494.92
2019-04-05T09:16:22.095Z,99495.93
2019-04-05T09:19:25.909Z,99482.94
2019-04-05T09:22:29.856Z,99483.20
2019-04-05T09:25:33.739Z,99483.02
2019-04-05T09:28:37.566Z,99484.96
2019-04-05T09:31:41.583Z,99486.10
2019-04-05T09:34:45.913Z,99483.19
2019-04-05T09:37:50.228Z,99479.53
2019-04-05T09:40:54.286Z,99473.60
2019-04-05T09:43:58.188Z,99464.26
2019-04-05T09:47:02.111Z,99457.52
2019-04-05T09:50:06.785Z,99461.42
2019-04-05T09:53:10.766Z,99456.86
2019-04-05T09:56:14.776Z,99452.97
2019-04-05T09:59:18.746Z,99449.52
2019-04-05T10:02:22.707Z,99447.55
2019-04-05T10:05:27.799Z,99445.66
2019-04-05T10:08:31.892Z,99444.02
2019-04-05T10:11:35.784Z,99449.06
2019-04-05T10:14:39.602Z,99443.35
2019-04-05T10:17:43.452Z,99437.75
2019-04-05T10:20:47.402Z,99435.84
2019-04-05T10:23:51.264Z,99430.98
2019-04-05T10:26:55.472Z,99432.34
2019-04-05T10:29:59.579Z,99428.35
2019-04-05T10:33:03.505Z,99423.56
2019-04-05T10:36:08.017Z,99431.45
2019-04-05T10:39:12.070Z,99434.92
2019-04-05T10:42:28.363Z,99434.20
2019-04-05T10:45:32.329Z,99426.12
2019-04-05T10:48:36.183Z,99423.23
2019-04-05T10:51:41.013Z,99429.05
2019-04-05T10:54:45.101Z,99416.35
2019-04-05T10:57:49.251Z,99414.29
2019-04-05T11:00:53.887Z,99410.34
2019-04-05T11:03:57.715Z,99408.58
2019-04-05T11:07:01.556Z,99402.69
2019-04-05T11:10:06.878Z,99402.33
2019-04-05T11:13:11.078Z,99408.27
2019-04-05T11:16:15.067Z,99405.57
2019-04-05T11:19:19.185Z,99405.36
2019-04-05T11:22:23.094Z,99402.73
2019-04-05T11:25:27.047Z,99401.55
2019-04-05T11:28:34.522Z,99404.16
2019-04-05T11:31:38.508Z,99401.22
2019-04-05T11:34:42.828Z,99388.14
2019-04-05T11:37:49.914Z,99389.50
2019-04-05T11:40:53.715Z,99387.36
2019-04-05T11:44:00.835Z,99389.97
2019-04-05T11:47:05.376Z,99391.59
2019-04-05T11:50:10.160Z,99392.05
2019-04-05T11:53:14.529Z,99393.37
2019-04-05T11:56:19.947Z,99381.95
2019-04-05T11:59:25.218Z,99391.99
2019-04-05T12:02:34.842Z,99390.77
2019-04-05T12:05:38.862Z,99391.25
2019-04-05T12:08:43.178Z,99392.45
2019-04-05T12:11:47.426Z,99397.58
2019-04-05T12:14:51.265Z,99395.72
2019-04-05T12:17:55.387Z,99398.29
2019-04-05T12:21:00.723Z,99392.84
2019-04-05T12:24:05.437Z,99394.16
2019-04-05T12:27:09.521Z,99395.62
2019-04-05T12:30:16.433Z,99396.20
2019-04-05T12:33:20.823Z,99395.34
2019-04-05T12:36:25.166Z,99392.47
2019-04-05T12:39:29.445Z,99389.98
2019-04-05T12:42:33.625Z,99380.77
2019-04-05T12:45:38.764Z,99378.80
2019-04-05T12:48:45.519Z,99377.30
2019-04-05T12:51:48.530Z,99372.78
2019-04-05T12:54:54.831Z,99365.73
2019-04-05T12:57:58.471Z,99370.00
2019-04-05T13:01:02.355Z,99369.31
2019-04-05T13:04:06.358Z,99368.77
2019-04-05T13:07:10.340Z,99374.70
2019-04-05T13:10:14.370Z,99370.37
2019-04-05T13:13:18.517Z,99360.18
2019-04-05T13:16:22.484Z,99362.63
2019-04-05T13:19:26.615Z,99363.14
2019-04-05T13:22:33.133Z,99362.97
2019-04-05T13:25:40.663Z,99358.34
2019-04-05T13:28:42.945Z,99352.33
2019-04-05T13:31:48.601Z,99355.56
2019-04-05T13:34:55.383Z,99356.14
2019-04-05T13:37:58.522Z,99349.57
2019-04-05T13:41:04.126Z,99347.34
2019-04-05T13:44:08.189Z,99341.64
2019-04-05T13:47:12.020Z,99337.39
2019-04-05T13:50:16.026Z,99331.40
2019-04-05T13:53:20.087Z,99336.66
2019-04-05T13:56:24.105Z,99337.70
2019-04-05T13:59:28.321Z,99338.66
2019-04-05T14:02:32.151Z,99334.38
2019-04-05T14:05:36.175Z,99336.81
2019-04-05T14:08:41.934Z,99332.04
2019-04-05T14:11:45.618Z,99333.91
2019-04-05T14:14:51.467Z,99333.52
2019-04-05T14:17:55.405Z,99333.91
2019-04-05T14:20:59.334Z,99337.23
2019-04-05T14:24:04.360Z,99337.08
2019-04-05T14:27:08.596Z,99336.36
2019-04-05T14:30:13.767Z,99328.19
2019-04-05T14:33:17.576Z,99326.02
2019-04-05T14:36:23.003Z,99331.64
2019-04-05T14:39:27.460Z,99330.24
2019-04-05T14:42:31.958Z,99331.00
2019-04-05T14:45:35.934Z,99325.06
2019-04-05T14:48:42.211Z,99326.50
2019-04-05T14:51:53.713Z,99334.78
2019-04-05T14:54:51.904Z,99331.00
2019-04-05T14:57:56.268Z,99335.88
2019-04-05T15:01:00.075Z,99332.83
2019-04-05T15:04:03.985Z,99331.13
2019-04-05T15:07:08.149Z,99332.61
2019-04-05T15:10:12.523Z,99322.59
2019-04-05T15:13:16.413Z,99322.03
2019-04-05T15:16:23.281Z,99320.53
2019-04-05T15:19:26.243Z,99315.73
2019-04-05T15:22:30.272Z,99315.50
2019-04-05T15:25:34.349Z,99311.73
2019-04-05T15:28:39.074Z,99318.64
2019-04-05T15:31:43.558Z,99326.78
2019-04-05T15:34:47.535Z,99317.45
2019-04-05T15:37:51.919Z,99325.34
2019-04-05T15:40:57.908Z,99328.73
2019-04-05T15:44:01.688Z,99320.47
2019-04-05T15:47:05.779Z,99322.13
2019-04-05T15:50:10.188Z,99321.12
2019-04-05T15:53:14.325Z,99319.80
2019-04-05T15:56:18.328Z,99321.61
2019-04-05T15:59:22.426Z,99326.88
2019-04-05T16:02:26.718Z,99327.00
2019-04-05T16:05:30.594Z,99328.31
2019-04-05T16:08:34.503Z,99324.26
2019-04-05T16:11:38.412Z,99332.33
2019-04-05T16:14:43.939Z,99329.01
2019-04-05T16:17:48.020Z,99330.87
2019-04-05T16:20:52.279Z,99333.39
2019-04-05T16:23:56.316Z,99341.00
2019-04-05T16:27:00.194Z,99339.88
2019-04-05T16:30:04.886Z,99337.02
2019-04-05T16:33:08.663Z,99343.43
2019-04-05T16:36:12.566Z,99346.19
2019-04-05T16:39:19.195Z,99345.34
2019-04-05T16:42:22.977Z,99347.09
2019-04-05T16:45:27.002Z,99352.63
2019-04-05T16:48:30.986Z,99353.05
2019-04-05T16:51:34.786Z,99357.40
2019-04-05T16:54:38.583Z,99361.43
2019-04-05T16:57:42.939Z,99361.58
2019-04-05T17:00:46.805Z,99363.68
2019-04-05T17:03:50.725Z,99360.98
2019-04-05T17:06:54.930Z,99365.12
2019-04-05T17:09:59.047Z,99364.64
2019-04-05T17:13:02.912Z,99373.60
2019-04-05T17:16:06.832Z,99370.13
2019-04-05T17:19:11.177Z,99368.84
2019-04-05T17:22:15.650Z,99364.33
2019-04-05T17:25:19.597Z,99361.05
2019-04-05T17:28:23.449Z,99361.86
2019-04-05T17:31:27.316Z,99362.34
2019-04-05T17:34:31.297Z,99366.66
2019-04-05T17:37:35.365Z,99361.34
2019-04-05T17:40:42.498Z,99359.52
2019-04-05T17:43:46.628Z,99364.62
2019-04-05T17:46:50.455Z,99367.66
2019-04-05T17:49:54.505Z,99371.20
2019-04-05T17:53:11.300Z,99369.23
2019-04-05T17:56:04.353Z,99373.23
2019-04-05T17:59:08.596Z,99372.48
2019-04-05T18:02:12.438Z,99372.88
2019-04-05T18:05:16.406Z,99367.06
2019-04-05T18:08:20.615Z,99369.89
2019-04-05T18:11:27.777Z,99369.89
2019-04-05T18:14:32.258Z,99380.91
2019-04-05T18:17:36.206Z,99378.88
2019-04-05T18:20:42.209Z,99386.05
2019-04-05T18:23:46.001Z,99386.70
2019-04-05T18:26:50.192Z,99383.80
2019-04-05T18:29:54.025Z,99390.36
2019-04-05T18:32:58.211Z,99395.50
2019-04-05T18:36:02.007Z,99392.22
2019-04-05T18:39:07.991Z,99385.20
2019-04-05T18:42:11.927Z,99393.70
2019-04-05T18:45:15.765Z,99391.16
2019-04-05T18:48:19.667Z,99394.95
2019-04-05T18:51:24.183Z,99390.77
2019-04-05T18:54:27.949Z,99392.42
2019-04-05T18:57:31.843Z,99401.53
2019-04-05T19:00:35.757Z,99395.56
2019-04-05T19:03:40.036Z,99397.98
2019-04-05T19:06:44.234Z,99396.41
2019-04-05T19:09:48.152Z,99392.98
2019-04-05T19:12:52.430Z,99395.55
2019-04-05T19:15:56.177Z,99394.80
2019-04-05T19:19:00.264Z,99390.50
2019-04-05T19:22:04.412Z,99385.76
2019-04-05T19:25:08.531Z,99391.72
2019-04-05T19:28:12.466Z,99387.98
2019-04-05T19:49:51.040Z,99390.09
2019-04-05T19:52:55.235Z,99383.79
2019-04-05T19:55:59.047Z,99384.91
2019-04-05T19:59:02.851Z,99389.19
2019-04-05T20:02:06.719Z,99376.56
2019-04-05T20:05:10.741Z,99381.09
2019-04-05T20:08:14.808Z,99377.98
2019-04-05T20:11:18.571Z,99378.28
2019-04-05T20:14:22.406Z,99378.42
2019-04-05T20:17:26.481Z,99381.42
2019-04-05T20:20:30.304Z,99383.13
2019-04-05T20:23:34.604Z,99380.25
2019-04-05T20:26:38.486Z,99380.41
2019-04-05T20:29:42.347Z,99385.34
2019-04-05T20:32:46.575Z,99382.73
2019-04-05T20:35:50.785Z,99386.35
2019-04-05T20:38:55.013Z,99384.65
2019-04-05T20:41:58.888Z,99386.67
2019-04-05T20:45:02.823Z,99382.73
2019-04-05T20:48:07.061Z,99386.16
2019-04-05T20:51:13.505Z,99389.45
2019-04-05T20:54:24.472Z,99382.36
2019-04-05T20:57:23.268Z,99383.99
2019-04-05T21:00:27.179Z,99390.45
2019-04-05T21:03:31.413Z,99390.91
2019-04-05T21:06:35.259Z,99390.76
2019-04-05T21:09:39.696Z,99400.77
2019-04-05T21:12:43.471Z,99401.56
2019-04-05T21:15:47.274Z,99396.62
2019-04-05T21:18:51.597Z,99401.88
2019-04-05T21:21:55.479Z,99404.61
2019-04-05T21:24:59.509Z,99398.37
2019-04-05T21:28:03.421Z,99402.83
2019-04-05T21:31:07.278Z,99398.95
2019-04-05T21:34:11.330Z,99404.09
2019-04-05T21:37:15.559Z,99396.25
2019-04-05T21:40:19.466Z,99398.33
2019-04-05T21:43:23.590Z,99395.85
2019-04-05T21:46:27.688Z,99398.33
2019-04-05T21:49:31.542Z,99400.45
2019-04-05T21:52:35.441Z,99399.00
2019-04-05T21:55:39.313Z,99396.11
2019-04-05T21:58:43.552Z,99392.88
2019-04-05T22:01:47.594Z,99397.36
2019-04-05T22:04:51.403Z,99401.34
2019-04-05T22:07:55.511Z,99398.45
2019-04-05T22:10:59.596Z,99403.17
2019-04-05T22:14:03.489Z,99402.64
2019-04-05T22:17:07.465Z,99400.02
2019-04-05T22:20:11.531Z,99402.05
2019-04-05T22:23:15.622Z,99403.59
2019-04-05T22:26:19.527Z,99409.48
2019-04-05T22:29:23.382Z,99407.67
2019-04-05T22:32:27.269Z,99409.17
2019-04-05T22:35:31.601Z,99407.37
2019-04-05T22:38:35.535Z,99409.05
2019-04-05T22:41:39.844Z,99410.20
2019-04-05T22:44:44.338Z,99411.42
2019-04-05T22:47:48.742Z,99407.95
2019-04-05T22:50:52.581Z,99401.97
2019-04-05T22:53:56.463Z,99405.37
2019-04-05T22:57:00.693Z,99406.23
2019-04-05T23:00:05.742Z,99413.54
2019-04-05T23:03:09.915Z,99419.33
2019-04-05T23:06:13.740Z,99420.64
2019-04-05T23:09:17.522Z,99417.23
2019-04-05T23:12:21.417Z,99412.83
2019-04-05T23:15:25.357Z,99419.83
2019-04-05T23:18:29.452Z,99412.64
2019-04-05T23:21:33.649Z,99420.97
2019-04-05T23:24:37.495Z,99420.02
2019-04-05T23:27:41.319Z,99430.59
2019-04-05T23:30:45.293Z,99432.50
2019-04-05T23:33:49.143Z,99433.20
2019-04-05T23:36:53.548Z,99433.83
2019-04-05T23:39:57.375Z,99435.70
2019-04-05T23:43:01.195Z,99431.73
2019-04-05T23:46:05.173Z,99426.91
2019-04-05T23:49:09.271Z,99423.02
2019-04-05T23:52:13.461Z,99424.69
2019-04-05T23:55:17.287Z,99421.01
2019-04-05T23:58:21.232Z,99419.63
